sensor_id;sensor_type;location;lat;lon;timestamp;temperature;humidity
19168;DHT22;9716;53.114;18.040;2023-03-01T00:01:47;-1.10;99.90
19168;DHT22;9716;53.114;18.040;2023-03-01T00:04:15;-1.00;99.90
19168;DHT22;9716;53.114;18.040;2023-03-01T00:06:45;-1.10;99.90
19168;DHT22;9716;53.114;18.040;2023-03-01T00:09:15;-1.10;99.90
19168;DHT22;9716;53.114;18.040;2023-03-01T00:11:43;-1.10;99.90
19168;DHT22;9716;53.114;18.040;2023-03-01T00:14:13;-1.10;99.90
19168;DHT22;9716;53.114;18.040;2023-03-01T00:16:44;-1.10;99.90
19168;DHT22;9716;53.114;18.040;2023-03-01T00:19:16;-1.20;99.90
19168;DHT22;9716;53.114;18.040;2023-03-01T00:21:46;-1.20;99.90
19168;DHT22;9716;53.114;18.040;2023-03-01T00:24:15;-1.20;99.90
19168;DHT22;9716;53.114;18.040;2023-03-01T00:26:44;-1.20;99.90
19168;DHT22;9716;53.114;18.040;2023-03-01T00:29:13;-1.30;99.90
19168;DHT22;9716;53.114;18.040;2023-03-01T00:31:42;-1.30;99.90
19168;DHT22;9716;53.114;18.040;2023-03-01T00:34:10;-1.30;99.90
19168;DHT22;9716;53.114;18.040;2023-03-01T00:36:39;-1.30;99.90
19168;DHT22;9716;53.114;18.040;2023-03-01T00:39:11;-1.30;99.90
19168;DHT22;9716;53.114;18.040;2023-03-01T00:41:41;-1.30;99.90
19168;DHT22;9716;53.114;18.040;2023-03-01T00:44:09;-1.30;99.90
19168;DHT22;9716;53.114;18.040;2023-03-01T00:46:38;-1.30;99.90
19168;DHT22;9716;53.114;18.040;2023-03-01T00:49:07;-1.30;99.90
19168;DHT22;9716;53.114;18.040;2023-03-01T00:51:35;-1.30;99.90
19168;DHT22;9716;53.114;18.040;2023-03-01T00:54:03;-1.30;99.90
19168;DHT22;9716;53.114;18.040;2023-03-01T00:56:33;-1.40;99.90
19168;DHT22;9716;53.114;18.040;2023-03-01T00:59:02;-1.40;99.90
19168;DHT22;9716;53.114;18.040;2023-03-01T01:01:31;-1.40;99.90
19168;DHT22;9716;53.114;18.040;2023-03-01T01:04:01;-1.50;99.90
19168;DHT22;9716;53.114;18.040;2023-03-01T01:06:32;-1.40;99.90
19168;DHT22;9716;53.114;18.040;2023-03-01T01:09:01;-1.50;99.90
19168;DHT22;9716;53.114;18.040;2023-03-01T01:11:30;-1.50;99.90
19168;DHT22;9716;53.114;18.040;2023-03-01T01:13:59;-1.50;99.90
19168;DHT22;9716;53.114;18.040;2023-03-01T01:16:28;-1.40;99.90
19168;DHT22;9716;53.114;18.040;2023-03-01T01:18:57;-1.50;99.90
19168;DHT22;9716;53.114;18.040;2023-03-01T01:21:27;-1.50;99.90
19168;DHT22;9716;53.114;18.040;2023-03-01T01:23:56;-1.40;99.90
19168;DHT22;9716;53.114;18.040;2023-03-01T01:26:26;-1.40;99.90
19168;DHT22;9716;53.114;18.040;2023-03-01T01:28:57;-1.40;99.90
19168;DHT22;9716;53.114;18.040;2023-03-01T01:31:28;-1.40;99.90
19168;DHT22;9716;53.114;18.040;2023-03-01T01:33:57;-1.40;99.90
19168;DHT22;9716;53.114;18.040;2023-03-01T01:36:28;-1.40;99.90
19168;DHT22;9716;53.114;18.040;2023-03-01T01:38:57;-1.40;99.90
19168;DHT22;9716;53.114;18.040;2023-03-01T01:41:28;-1.30;99.90
19168;DHT22;9716;53.114;18.040;2023-03-01T01:44:15;-1.30;99.90
19168;DHT22;9716;53.114;18.040;2023-03-01T01:46:49;-1.30;99.90
19168;DHT22;9716;53.114;18.040;2023-03-01T01:49:29;-1.30;99.90
19168;DHT22;9716;53.114;18.040;2023-03-01T01:52:06;-1.30;99.90
19168;DHT22;9716;53.114;18.040;2023-03-01T01:54:41;-1.30;99.90
19168;DHT22;9716;53.114;18.040;2023-03-01T01:57:14;-1.30;99.90
19168;DHT22;9716;53.114;18.040;2023-03-01T01:59:47;-1.30;99.90
19168;DHT22;9716;53.114;18.040;2023-03-01T02:02:19;-1.40;99.90
19168;DHT22;9716;53.114;18.040;2023-03-01T02:04:48;-1.40;99.90
19168;DHT22;9716;53.114;18.040;2023-03-01T02:07:19;-1.40;99.90
19168;DHT22;9716;53.114;18.040;2023-03-01T02:09:51;-1.40;99.90
19168;DHT22;9716;53.114;18.040;2023-03-01T02:12:23;-1.40;99.90
19168;DHT22;9716;53.114;18.040;2023-03-01T02:14:52;-1.40;99.90
19168;DHT22;9716;53.114;18.040;2023-03-01T02:17:22;-1.50;99.90
19168;DHT22;9716;53.114;18.040;2023-03-01T02:19:59;-1.50;99.90
19168;DHT22;9716;53.114;18.040;2023-03-01T02:22:36;-1.50;99.90
19168;DHT22;9716;53.114;18.040;2023-03-01T02:27:52;-1.50;99.90
19168;DHT22;9716;53.114;18.040;2023-03-01T02:30:24;-1.60;99.90
19168;DHT22;9716;53.114;18.040;2023-03-01T02:32:55;-1.60;99.90
19168;DHT22;9716;53.114;18.040;2023-03-01T02:35:32;-1.60;99.90
19168;DHT22;9716;53.114;18.040;2023-03-01T02:38:03;-1.70;99.90
19168;DHT22;9716;53.114;18.040;2023-03-01T02:40:34;-1.60;99.90
19168;DHT22;9716;53.114;18.040;2023-03-01T02:43:04;-1.60;99.90
19168;DHT22;9716;53.114;18.040;2023-03-01T02:45:36;-1.60;99.90
19168;DHT22;9716;53.114;18.040;2023-03-01T02:48:05;-1.70;99.90
19168;DHT22;9716;53.114;18.040;2023-03-01T02:50:51;-1.70;99.90
19168;DHT22;9716;53.114;18.040;2023-03-01T02:53:25;-1.70;99.90
19168;DHT22;9716;53.114;18.040;2023-03-01T02:55:56;-1.70;99.90
19168;DHT22;9716;53.114;18.040;2023-03-01T02:58:26;-1.70;99.90
19168;DHT22;9716;53.114;18.040;2023-03-01T03:00:56;-1.70;99.90
19168;DHT22;9716;53.114;18.040;2023-03-01T03:03:28;-1.70;99.90
19168;DHT22;9716;53.114;18.040;2023-03-01T03:05:56;-1.70;99.90
19168;DHT22;9716;53.114;18.040;2023-03-01T03:08:25;-1.70;99.90
19168;DHT22;9716;53.114;18.040;2023-03-01T03:10:53;-1.60;99.90
19168;DHT22;9716;53.114;18.040;2023-03-01T03:13:23;-1.60;99.90
19168;DHT22;9716;53.114;18.040;2023-03-01T03:15:56;-1.60;99.90
19168;DHT22;9716;53.114;18.040;2023-03-01T03:18:25;-1.60;99.90
19168;DHT22;9716;53.114;18.040;2023-03-01T03:20:54;-1.60;99.90
19168;DHT22;9716;53.114;18.040;2023-03-01T03:23:23;-1.60;99.90
19168;DHT22;9716;53.114;18.040;2023-03-01T03:25:51;-1.60;99.90
19168;DHT22;9716;53.114;18.040;2023-03-01T03:28:20;-1.50;99.90
19168;DHT22;9716;53.114;18.040;2023-03-01T03:30:48;-1.50;99.90
19168;DHT22;9716;53.114;18.040;2023-03-01T03:33:18;-1.50;99.90
19168;DHT22;9716;53.114;18.040;2023-03-01T03:35:48;-1.50;99.90
19168;DHT22;9716;53.114;18.040;2023-03-01T03:38:18;-1.50;99.90
19168;DHT22;9716;53.114;18.040;2023-03-01T03:40:50;-1.50;99.90
19168;DHT22;9716;53.114;18.040;2023-03-01T03:43:20;-1.50;99.90
19168;DHT22;9716;53.114;18.040;2023-03-01T03:45:50;-1.50;99.90
19168;DHT22;9716;53.114;18.040;2023-03-01T03:48:20;-1.50;99.90
19168;DHT22;9716;53.114;18.040;2023-03-01T03:50:50;-1.50;99.90
19168;DHT22;9716;53.114;18.040;2023-03-01T03:53:20;-1.50;99.90
19168;DHT22;9716;53.114;18.040;2023-03-01T03:55:48;-1.40;99.90
19168;DHT22;9716;53.114;18.040;2023-03-01T03:58:20;-1.40;99.90
19168;DHT22;9716;53.114;18.040;2023-03-01T04:00:50;-1.40;99.90
19168;DHT22;9716;53.114;18.040;2023-03-01T04:03:20;-1.40;99.90
19168;DHT22;9716;53.114;18.040;2023-03-01T04:05:50;-1.40;99.90
19168;DHT22;9716;53.114;18.040;2023-03-01T04:08:19;-1.40;99.90
19168;DHT22;9716;53.114;18.040;2023-03-01T04:10:49;-1.40;99.90
19168;DHT22;9716;53.114;18.040;2023-03-01T04:13:20;-1.40;99.90
19168;DHT22;9716;53.114;18.040;2023-03-01T04:15:49;-1.40;99.90
19168;DHT22;9716;53.114;18.040;2023-03-01T04:18:20;-1.40;99.90
19168;DHT22;9716;53.114;18.040;2023-03-01T04:20:49;-1.40;99.90
19168;DHT22;9716;53.114;18.040;2023-03-01T04:23:20;-1.30;99.90
19168;DHT22;9716;53.114;18.040;2023-03-01T04:25:51;-1.30;99.90
19168;DHT22;9716;53.114;18.040;2023-03-01T04:28:38;-1.30;99.90
19168;DHT22;9716;53.114;18.040;2023-03-01T04:31:08;-1.30;99.90
19168;DHT22;9716;53.114;18.040;2023-03-01T04:33:43;-1.40;99.90
19168;DHT22;9716;53.114;18.040;2023-03-01T04:36:13;-1.30;99.90
19168;DHT22;9716;53.114;18.040;2023-03-01T04:38:43;-1.30;99.90
19168;DHT22;9716;53.114;18.040;2023-03-01T04:41:16;-1.30;99.90
19168;DHT22;9716;53.114;18.040;2023-03-01T04:43:45;-1.30;99.90
19168;DHT22;9716;53.114;18.040;2023-03-01T04:46:15;-1.30;99.90
19168;DHT22;9716;53.114;18.040;2023-03-01T04:48:46;-1.30;99.90
19168;DHT22;9716;53.114;18.040;2023-03-01T04:51:15;-1.30;99.90
19168;DHT22;9716;53.114;18.040;2023-03-01T04:53:44;-1.30;99.90
19168;DHT22;9716;53.114;18.040;2023-03-01T04:56:13;-1.30;99.90
19168;DHT22;9716;53.114;18.040;2023-03-01T04:58:42;-1.40;99.90
19168;DHT22;9716;53.114;18.040;2023-03-01T05:01:11;-1.40;99.90
19168;DHT22;9716;53.114;18.040;2023-03-01T05:03:45;-1.40;99.90
19168;DHT22;9716;53.114;18.040;2023-03-01T05:06:15;-1.40;99.90
19168;DHT22;9716;53.114;18.040;2023-03-01T05:08:44;-1.40;99.90
19168;DHT22;9716;53.114;18.040;2023-03-01T05:11:12;-1.40;99.90
19168;DHT22;9716;53.114;18.040;2023-03-01T05:13:41;-1.40;99.90
19168;DHT22;9716;53.114;18.040;2023-03-01T05:16:10;-1.40;99.90
19168;DHT22;9716;53.114;18.040;2023-03-01T05:18:40;-1.40;99.90
19168;DHT22;9716;53.114;18.040;2023-03-01T05:21:11;-1.50;99.90
19168;DHT22;9716;53.114;18.040;2023-03-01T05:23:43;-1.50;99.90
19168;DHT22;9716;53.114;18.040;2023-03-01T05:26:14;-1.50;99.90
19168;DHT22;9716;53.114;18.040;2023-03-01T05:28:54;-1.50;99.90
19168;DHT22;9716;53.114;18.040;2023-03-01T05:31:26;-1.50;99.90
19168;DHT22;9716;53.114;18.040;2023-03-01T05:33:55;-1.50;99.90
19168;DHT22;9716;53.114;18.040;2023-03-01T05:36:25;-1.50;99.90
19168;DHT22;9716;53.114;18.040;2023-03-01T05:38:53;-1.50;99.90
19168;DHT22;9716;53.114;18.040;2023-03-01T05:41:22;-1.50;99.90
19168;DHT22;9716;53.114;18.040;2023-03-01T05:43:51;-1.50;99.90
19168;DHT22;9716;53.114;18.040;2023-03-01T05:46:19;-1.50;99.90
19168;DHT22;9716;53.114;18.040;2023-03-01T05:48:48;-1.50;99.90
19168;DHT22;9716;53.114;18.040;2023-03-01T05:51:16;-1.50;99.90
19168;DHT22;9716;53.114;18.040;2023-03-01T05:53:47;-1.40;99.90
19168;DHT22;9716;53.114;18.040;2023-03-01T05:56:15;-1.40;99.90
19168;DHT22;9716;53.114;18.040;2023-03-01T05:58:44;-1.40;99.90
19168;DHT22;9716;53.114;18.040;2023-03-01T06:01:12;-1.30;99.90
19168;DHT22;9716;53.114;18.040;2023-03-01T06:03:41;-1.30;99.90
19168;DHT22;9716;53.114;18.040;2023-03-01T06:06:10;-1.20;99.90
19168;DHT22;9716;53.114;18.040;2023-03-01T06:08:38;-1.20;99.90
19168;DHT22;9716;53.114;18.040;2023-03-01T06:11:08;-1.10;99.90
19168;DHT22;9716;53.114;18.040;2023-03-01T06:13:37;-1.00;99.90
19168;DHT22;9716;53.114;18.040;2023-03-01T06:16:06;-0.90;99.90
19168;DHT22;9716;53.114;18.040;2023-03-01T06:18:35;-0.80;99.90
19168;DHT22;9716;53.114;18.040;2023-03-01T06:21:04;-0.60;99.90
19168;DHT22;9716;53.114;18.040;2023-03-01T06:23:33;-0.50;99.90
19168;DHT22;9716;53.114;18.040;2023-03-01T06:26:05;-0.40;99.90
19168;DHT22;9716;53.114;18.040;2023-03-01T06:28:35;-0.30;99.90
19168;DHT22;9716;53.114;18.040;2023-03-01T06:31:04;-0.10;99.90
19168;DHT22;9716;53.114;18.040;2023-03-01T06:33:35;0.10;99.90
19168;DHT22;9716;53.114;18.040;2023-03-01T06:36:04;0.30;99.90
19168;DHT22;9716;53.114;18.040;2023-03-01T06:38:33;0.40;99.90
19168;DHT22;9716;53.114;18.040;2023-03-01T06:41:01;0.60;99.90
19168;DHT22;9716;53.114;18.040;2023-03-01T06:43:30;0.80;99.90
19168;DHT22;9716;53.114;18.040;2023-03-01T06:46:02;0.90;99.90
19168;DHT22;9716;53.114;18.040;2023-03-01T06:48:32;1.00;99.90
19168;DHT22;9716;53.114;18.040;2023-03-01T06:51:00;1.20;99.90
19168;DHT22;9716;53.114;18.040;2023-03-01T06:53:29;1.30;99.90
19168;DHT22;9716;53.114;18.040;2023-03-01T06:55:58;1.40;99.90
19168;DHT22;9716;53.114;18.040;2023-03-01T06:58:27;1.60;99.90
19168;DHT22;9716;53.114;18.040;2023-03-01T07:00:55;1.80;99.90
19168;DHT22;9716;53.114;18.040;2023-03-01T07:03:25;2.10;99.90
19168;DHT22;9716;53.114;18.040;2023-03-01T07:05:54;2.30;99.90
19168;DHT22;9716;53.114;18.040;2023-03-01T07:08:22;2.50;99.90
19168;DHT22;9716;53.114;18.040;2023-03-01T07:10:55;2.70;99.90
19168;DHT22;9716;53.114;18.040;2023-03-01T07:13:24;2.90;99.90
19168;DHT22;9716;53.114;18.040;2023-03-01T07:15:52;3.10;99.90
19168;DHT22;9716;53.114;18.040;2023-03-01T07:18:21;3.30;99.90
19168;DHT22;9716;53.114;18.040;2023-03-01T07:20:50;3.50;99.90
19168;DHT22;9716;53.114;18.040;2023-03-01T07:23:19;3.70;99.90
19168;DHT22;9716;53.114;18.040;2023-03-01T07:25:52;3.90;99.90
19168;DHT22;9716;53.114;18.040;2023-03-01T07:28:23;4.20;99.90
19168;DHT22;9716;53.114;18.040;2023-03-01T07:30:51;4.50;99.90
19168;DHT22;9716;53.114;18.040;2023-03-01T07:33:20;4.90;99.90
19168;DHT22;9716;53.114;18.040;2023-03-01T07:35:56;5.20;99.90
19168;DHT22;9716;53.114;18.040;2023-03-01T07:38:25;5.70;99.90
19168;DHT22;9716;53.114;18.040;2023-03-01T07:40:57;6.00;99.90
19168;DHT22;9716;53.114;18.040;2023-03-01T07:43:26;6.30;99.90
19168;DHT22;9716;53.114;18.040;2023-03-01T07:45:54;6.50;99.90
19168;DHT22;9716;53.114;18.040;2023-03-01T07:48:23;6.70;99.90
19168;DHT22;9716;53.114;18.040;2023-03-01T07:50:53;6.80;99.90
19168;DHT22;9716;53.114;18.040;2023-03-01T07:53:21;6.90;99.90
19168;DHT22;9716;53.114;18.040;2023-03-01T07:55:49;7.00;99.90
19168;DHT22;9716;53.114;18.040;2023-03-01T07:58:18;7.20;99.90
19168;DHT22;9716;53.114;18.040;2023-03-01T08:00:46;7.40;99.90
19168;DHT22;9716;53.114;18.040;2023-03-01T08:03:15;7.60;99.90
19168;DHT22;9716;53.114;18.040;2023-03-01T08:05:42;7.80;99.90
19168;DHT22;9716;53.114;18.040;2023-03-01T08:08:12;7.90;99.90
19168;DHT22;9716;53.114;18.040;2023-03-01T08:10:41;8.00;99.90
19168;DHT22;9716;53.114;18.040;2023-03-01T08:13:09;8.20;99.90
19168;DHT22;9716;53.114;18.040;2023-03-01T08:15:38;8.30;99.90
19168;DHT22;9716;53.114;18.040;2023-03-01T08:18:06;8.40;99.90
19168;DHT22;9716;53.114;18.040;2023-03-01T08:20:34;8.50;99.90
19168;DHT22;9716;53.114;18.040;2023-03-01T08:23:03;8.60;99.90
19168;DHT22;9716;53.114;18.040;2023-03-01T08:25:33;8.70;99.90
19168;DHT22;9716;53.114;18.040;2023-03-01T08:28:01;8.70;99.90
19168;DHT22;9716;53.114;18.040;2023-03-01T08:30:30;8.60;99.90
19168;DHT22;9716;53.114;18.040;2023-03-01T08:32:58;8.70;99.90
19168;DHT22;9716;53.114;18.040;2023-03-01T08:35:27;8.60;99.90
19168;DHT22;9716;53.114;18.040;2023-03-01T08:37:55;8.50;99.90
19168;DHT22;9716;53.114;18.040;2023-03-01T08:40:24;8.40;99.90
19168;DHT22;9716;53.114;18.040;2023-03-01T08:42:57;8.20;99.90
19168;DHT22;9716;53.114;18.040;2023-03-01T08:45:26;8.10;99.90
19168;DHT22;9716;53.114;18.040;2023-03-01T08:47:54;8.00;99.90
19168;DHT22;9716;53.114;18.040;2023-03-01T08:50:23;7.90;99.90
19168;DHT22;9716;53.114;18.040;2023-03-01T08:52:52;7.90;99.90
19168;DHT22;9716;53.114;18.040;2023-03-01T08:55:20;8.00;99.90
19168;DHT22;9716;53.114;18.040;2023-03-01T08:57:49;8.20;99.90
19168;DHT22;9716;53.114;18.040;2023-03-01T09:00:19;8.30;99.90
19168;DHT22;9716;53.114;18.040;2023-03-01T09:02:48;8.30;99.90
19168;DHT22;9716;53.114;18.040;2023-03-01T09:05:17;8.40;99.90
19168;DHT22;9716;53.114;18.040;2023-03-01T09:07:46;8.40;99.90
19168;DHT22;9716;53.114;18.040;2023-03-01T09:10:15;8.30;99.90
19168;DHT22;9716;53.114;18.040;2023-03-01T09:12:43;8.30;99.90
19168;DHT22;9716;53.114;18.040;2023-03-01T09:15:12;8.40;99.90
19168;DHT22;9716;53.114;18.040;2023-03-01T09:17:42;8.50;99.90
19168;DHT22;9716;53.114;18.040;2023-03-01T09:20:11;8.50;99.90
19168;DHT22;9716;53.114;18.040;2023-03-01T09:22:39;8.60;99.90
19168;DHT22;9716;53.114;18.040;2023-03-01T09:25:08;8.70;99.90
19168;DHT22;9716;53.114;18.040;2023-03-01T09:27:37;8.80;99.90
19168;DHT22;9716;53.114;18.040;2023-03-01T09:30:06;9.00;99.90
19168;DHT22;9716;53.114;18.040;2023-03-01T09:32:35;9.20;99.90
19168;DHT22;9716;53.114;18.040;2023-03-01T09:35:06;9.40;99.90
19168;DHT22;9716;53.114;18.040;2023-03-01T09:37:35;9.50;99.90
19168;DHT22;9716;53.114;18.040;2023-03-01T09:40:06;9.40;99.90
19168;DHT22;9716;53.114;18.040;2023-03-01T09:42:36;9.30;99.90
19168;DHT22;9716;53.114;18.040;2023-03-01T09:45:22;9.20;99.90
19168;DHT22;9716;53.114;18.040;2023-03-01T09:47:54;9.10;99.90
19168;DHT22;9716;53.114;18.040;2023-03-01T09:50:26;9.10;99.90
19168;DHT22;9716;53.114;18.040;2023-03-01T09:53:01;9.20;99.90
19168;DHT22;9716;53.114;18.040;2023-03-01T09:55:35;9.20;99.90
19168;DHT22;9716;53.114;18.040;2023-03-01T09:58:29;9.20;99.90
19168;DHT22;9716;53.114;18.040;2023-03-01T10:01:03;9.30;99.90
19168;DHT22;9716;53.114;18.040;2023-03-01T10:03:39;9.20;99.90
19168;DHT22;9716;53.114;18.040;2023-03-01T10:06:15;9.20;99.90
19168;DHT22;9716;53.114;18.040;2023-03-01T10:09:03;9.20;99.90
19168;DHT22;9716;53.114;18.040;2023-03-01T10:11:37;9.30;99.90
19168;DHT22;9716;53.114;18.040;2023-03-01T10:14:15;9.40;99.90
19168;DHT22;9716;53.114;18.040;2023-03-01T10:16:50;9.50;99.90
19168;DHT22;9716;53.114;18.040;2023-03-01T10:19:24;9.70;99.90
19168;DHT22;9716;53.114;18.040;2023-03-01T10:22:00;9.80;99.90
19168;DHT22;9716;53.114;18.040;2023-03-01T10:24:33;9.90;99.90
19168;DHT22;9716;53.114;18.040;2023-03-01T10:27:05;10.00;99.90
19168;DHT22;9716;53.114;18.040;2023-03-01T10:29:38;10.00;99.90
19168;DHT22;9716;53.114;18.040;2023-03-01T10:32:09;10.20;99.90
19168;DHT22;9716;53.114;18.040;2023-03-01T10:34:38;10.20;99.90
19168;DHT22;9716;53.114;18.040;2023-03-01T10:37:13;10.30;99.90
19168;DHT22;9716;53.114;18.040;2023-03-01T10:39:58;10.30;99.90
19168;DHT22;9716;53.114;18.040;2023-03-01T10:42:34;10.30;99.90
19168;DHT22;9716;53.114;18.040;2023-03-01T10:45:25;10.20;99.90
19168;DHT22;9716;53.114;18.040;2023-03-01T10:48:04;10.20;99.90
19168;DHT22;9716;53.114;18.040;2023-03-01T10:50:33;10.10;99.90
19168;DHT22;9716;53.114;18.040;2023-03-01T10:53:21;10.00;99.90
19168;DHT22;9716;53.114;18.040;2023-03-01T10:55:58;10.00;99.90
19168;DHT22;9716;53.114;18.040;2023-03-01T10:58:28;9.90;99.90
19168;DHT22;9716;53.114;18.040;2023-03-01T11:00:59;9.80;99.90
19168;DHT22;9716;53.114;18.040;2023-03-01T11:03:30;9.80;99.90
19168;DHT22;9716;53.114;18.040;2023-03-01T11:06:05;9.70;99.90
19168;DHT22;9716;53.114;18.040;2023-03-01T11:08:40;9.80;99.90
19168;DHT22;9716;53.114;18.040;2023-03-01T11:11:28;9.80;99.90
19168;DHT22;9716;53.114;18.040;2023-03-01T11:13:59;9.70;99.90
19168;DHT22;9716;53.114;18.040;2023-03-01T11:16:33;9.70;99.90
19168;DHT22;9716;53.114;18.040;2023-03-01T11:19:18;9.60;99.90
19168;DHT22;9716;53.114;18.040;2023-03-01T11:21:59;9.50;99.90
19168;DHT22;9716;53.114;18.040;2023-03-01T11:24:36;9.50;99.90
19168;DHT22;9716;53.114;18.040;2023-03-01T11:27:18;9.40;99.90
19168;DHT22;9716;53.114;18.040;2023-03-01T11:29:52;9.40;99.90
19168;DHT22;9716;53.114;18.040;2023-03-01T11:32:25;9.50;99.90
19168;DHT22;9716;53.114;18.040;2023-03-01T11:34:57;9.50;99.90
19168;DHT22;9716;53.114;18.040;2023-03-01T11:37:39;9.50;99.90
19168;DHT22;9716;53.114;18.040;2023-03-01T11:40:17;9.40;99.90
19168;DHT22;9716;53.114;18.040;2023-03-01T11:43:01;9.40;99.90
19168;DHT22;9716;53.114;18.040;2023-03-01T11:45:38;9.40;99.90
19168;DHT22;9716;53.114;18.040;2023-03-01T11:48:28;9.30;99.90
19168;DHT22;9716;53.114;18.040;2023-03-01T11:51:23;9.30;99.90
19168;DHT22;9716;53.114;18.040;2023-03-01T11:54:09;9.20;99.90
19168;DHT22;9716;53.114;18.040;2023-03-01T11:56:46;9.20;99.90
19168;DHT22;9716;53.114;18.040;2023-03-01T11:59:43;9.20;99.90
19168;DHT22;9716;53.114;18.040;2023-03-01T12:02:39;9.10;99.90
19168;DHT22;9716;53.114;18.040;2023-03-01T12:05:20;9.20;99.90
19168;DHT22;9716;53.114;18.040;2023-03-01T12:08:00;9.20;99.90
19168;DHT22;9716;53.114;18.040;2023-03-01T12:10:41;9.20;99.90
19168;DHT22;9716;53.114;18.040;2023-03-01T12:13:42;9.20;99.90
19168;DHT22;9716;53.114;18.040;2023-03-01T12:16:27;9.20;99.90
19168;DHT22;9716;53.114;18.040;2023-03-01T12:19:20;9.20;99.90
19168;DHT22;9716;53.114;18.040;2023-03-01T12:22:09;9.20;99.90
19168;DHT22;9716;53.114;18.040;2023-03-01T12:24:55;9.20;99.90
19168;DHT22;9716;53.114;18.040;2023-03-01T12:27:46;9.20;99.90
19168;DHT22;9716;53.114;18.040;2023-03-01T12:30:29;9.10;99.90
19168;DHT22;9716;53.114;18.040;2023-03-01T12:33:11;9.10;99.90
19168;DHT22;9716;53.114;18.040;2023-03-01T12:38:49;9.10;99.90
19168;DHT22;9716;53.114;18.040;2023-03-01T12:41:37;9.00;99.90
19168;DHT22;9716;53.114;18.040;2023-03-01T12:44:35;9.00;99.90
19168;DHT22;9716;53.114;18.040;2023-03-01T12:47:22;8.90;99.90
19168;DHT22;9716;53.114;18.040;2023-03-01T12:49:57;8.90;99.90
19168;DHT22;9716;53.114;18.040;2023-03-01T12:52:33;8.80;99.90
19168;DHT22;9716;53.114;18.040;2023-03-01T12:55:19;8.80;99.90
19168;DHT22;9716;53.114;18.040;2023-03-01T12:57:53;8.80;99.90
19168;DHT22;9716;53.114;18.040;2023-03-01T13:00:28;8.80;99.90
19168;DHT22;9716;53.114;18.040;2023-03-01T13:03:16;8.70;99.90
19168;DHT22;9716;53.114;18.040;2023-03-01T13:05:58;8.70;99.90
19168;DHT22;9716;53.114;18.040;2023-03-01T13:08:35;8.70;99.90
19168;DHT22;9716;53.114;18.040;2023-03-01T13:11:06;8.60;99.90
19168;DHT22;9716;53.114;18.040;2023-03-01T13:13:39;8.60;99.90
19168;DHT22;9716;53.114;18.040;2023-03-01T13:16:38;8.50;99.90
19168;DHT22;9716;53.114;18.040;2023-03-01T13:19:13;8.50;99.90
19168;DHT22;9716;53.114;18.040;2023-03-01T13:21:43;8.50;99.90
19168;DHT22;9716;53.114;18.040;2023-03-01T13:24:33;8.50;99.90
19168;DHT22;9716;53.114;18.040;2023-03-01T13:27:21;8.40;99.90
19168;DHT22;9716;53.114;18.040;2023-03-01T13:29:53;8.40;99.90
19168;DHT22;9716;53.114;18.040;2023-03-01T13:32:23;8.40;99.90
19168;DHT22;9716;53.114;18.040;2023-03-01T13:38:38;8.40;99.90
19168;DHT22;9716;53.114;18.040;2023-03-01T13:41:08;8.30;99.90
19168;DHT22;9716;53.114;18.040;2023-03-01T13:43:38;8.30;99.90
19168;DHT22;9716;53.114;18.040;2023-03-01T13:46:12;8.30;99.90
19168;DHT22;9716;53.114;18.040;2023-03-01T13:48:47;8.30;99.90
19168;DHT22;9716;53.114;18.040;2023-03-01T13:51:21;8.30;99.90
19168;DHT22;9716;53.114;18.040;2023-03-01T13:53:54;8.30;99.90
19168;DHT22;9716;53.114;18.040;2023-03-01T13:56:25;8.30;99.90
19168;DHT22;9716;53.114;18.040;2023-03-01T13:58:59;8.20;99.90
19168;DHT22;9716;53.114;18.040;2023-03-01T14:01:30;8.20;99.90
19168;DHT22;9716;53.114;18.040;2023-03-01T14:04:00;8.20;99.90
19168;DHT22;9716;53.114;18.040;2023-03-01T14:06:30;8.20;99.90
19168;DHT22;9716;53.114;18.040;2023-03-01T14:09:09;8.20;99.90
19168;DHT22;9716;53.114;18.040;2023-03-01T14:14:44;8.10;99.90
19168;DHT22;9716;53.114;18.040;2023-03-01T14:17:42;8.10;99.90
19168;DHT22;9716;53.114;18.040;2023-03-01T14:20:17;8.10;99.90
19168;DHT22;9716;53.114;18.040;2023-03-01T14:22:47;8.10;99.90
19168;DHT22;9716;53.114;18.040;2023-03-01T14:25:26;8.00;99.90
19168;DHT22;9716;53.114;18.040;2023-03-01T14:27:58;8.00;99.90
19168;DHT22;9716;53.114;18.040;2023-03-01T14:30:33;8.00;99.90
19168;DHT22;9716;53.114;18.040;2023-03-01T14:33:04;8.00;99.90
19168;DHT22;9716;53.114;18.040;2023-03-01T14:35:35;7.90;99.90
19168;DHT22;9716;53.114;18.040;2023-03-01T14:38:04;7.90;99.90
19168;DHT22;9716;53.114;18.040;2023-03-01T14:40:35;7.90;99.90
19168;DHT22;9716;53.114;18.040;2023-03-01T14:43:10;7.80;99.90
19168;DHT22;9716;53.114;18.040;2023-03-01T14:45:39;7.80;99.90
19168;DHT22;9716;53.114;18.040;2023-03-01T14:48:15;7.80;99.90
19168;DHT22;9716;53.114;18.040;2023-03-01T14:50:44;7.80;99.90
19168;DHT22;9716;53.114;18.040;2023-03-01T14:53:17;7.70;99.90
19168;DHT22;9716;53.114;18.040;2023-03-01T14:55:51;7.70;99.90
19168;DHT22;9716;53.114;18.040;2023-03-01T14:58:24;7.70;99.90
19168;DHT22;9716;53.114;18.040;2023-03-01T15:00:55;7.60;99.90
19168;DHT22;9716;53.114;18.040;2023-03-01T15:03:27;7.50;99.90
19168;DHT22;9716;53.114;18.040;2023-03-01T15:05:59;7.50;99.90
19168;DHT22;9716;53.114;18.040;2023-03-01T15:08:29;7.40;99.90
19168;DHT22;9716;53.114;18.040;2023-03-01T15:11:03;7.30;99.90
19168;DHT22;9716;53.114;18.040;2023-03-01T15:13:35;7.20;99.90
19168;DHT22;9716;53.114;18.040;2023-03-01T15:16:09;7.20;99.90
19168;DHT22;9716;53.114;18.040;2023-03-01T15:18:43;7.10;99.90
19168;DHT22;9716;53.114;18.040;2023-03-01T15:21:17;7.00;99.90
19168;DHT22;9716;53.114;18.040;2023-03-01T15:23:51;6.90;99.90
19168;DHT22;9716;53.114;18.040;2023-03-01T15:26:29;6.90;99.90
19168;DHT22;9716;53.114;18.040;2023-03-01T15:28:59;6.80;99.90
19168;DHT22;9716;53.114;18.040;2023-03-01T15:31:30;6.70;99.90
19168;DHT22;9716;53.114;18.040;2023-03-01T15:34:11;6.60;99.90
19168;DHT22;9716;53.114;18.040;2023-03-01T15:36:50;6.60;99.90
19168;DHT22;9716;53.114;18.040;2023-03-01T15:39:37;6.50;99.90
19168;DHT22;9716;53.114;18.040;2023-03-01T15:42:09;6.40;99.90
19168;DHT22;9716;53.114;18.040;2023-03-01T15:44:39;6.30;99.90
19168;DHT22;9716;53.114;18.040;2023-03-01T15:47:26;6.30;99.90
19168;DHT22;9716;53.114;18.040;2023-03-01T15:49:56;6.20;99.90
19168;DHT22;9716;53.114;18.040;2023-03-01T15:52:27;6.10;99.90
19168;DHT22;9716;53.114;18.040;2023-03-01T15:54:59;6.00;99.90
19168;DHT22;9716;53.114;18.040;2023-03-01T15:57:30;6.00;99.90
19168;DHT22;9716;53.114;18.040;2023-03-01T15:59:58;5.90;99.90
19168;DHT22;9716;53.114;18.040;2023-03-01T16:02:27;5.80;99.90
19168;DHT22;9716;53.114;18.040;2023-03-01T16:04:56;5.70;99.90
19168;DHT22;9716;53.114;18.040;2023-03-01T16:07:24;5.70;99.90
19168;DHT22;9716;53.114;18.040;2023-03-01T16:09:55;5.60;99.90
19168;DHT22;9716;53.114;18.040;2023-03-01T16:12:23;5.50;99.90
19168;DHT22;9716;53.114;18.040;2023-03-01T16:14:53;5.40;99.90
19168;DHT22;9716;53.114;18.040;2023-03-01T16:17:24;5.40;99.90
19168;DHT22;9716;53.114;18.040;2023-03-01T16:19:52;5.30;99.90
19168;DHT22;9716;53.114;18.040;2023-03-01T16:22:21;5.20;99.90
19168;DHT22;9716;53.114;18.040;2023-03-01T16:24:52;5.10;99.90
19168;DHT22;9716;53.114;18.040;2023-03-01T16:27:20;5.10;99.90